sensor_id;sensor_type;location;lat;lon;timestamp;P1;durP1;ratioP1;P2;durP2;ratioP2
5465;SDS011;2755;50.728;7.108;2022-09-24T00:01:15;3.60;;;3.17;;
5465;SDS011;2755;50.728;7.108;2022-09-24T00:03:43;4.00;;;3.10;;
5465;SDS011;2755;50.728;7.108;2022-09-24T00:06:14;3.27;;;2.97;;
5465;SDS011;2755;50.728;7.108;2022-09-24T00:08:42;4.77;;;3.57;;
5465;SDS011;2755;50.728;7.108;2022-09-24T00:11:09;3.53;;;2.63;;
5465;SDS011;2755;50.728;7.108;2022-09-24T00:13:36;4.20;;;3.17;;
5465;SDS011;2755;50.728;7.108;2022-09-24T00:16:04;3.03;;;2.30;;
5465;SDS011;2755;50.728;7.108;2022-09-24T00:18:32;5.07;;;3.07;;
5465;SDS011;2755;50.728;7.108;2022-09-24T00:20:58;8.53;;;3.07;;
5465;SDS011;2755;50.728;7.108;2022-09-24T00:23:25;5.70;;;3.17;;
5465;SDS011;2755;50.728;7.108;2022-09-24T00:25:51;7.23;;;3.70;;
5465;SDS011;2755;50.728;7.108;2022-09-24T00:28:35;4.70;;;3.27;;
5465;SDS011;2755;50.728;7.108;2022-09-24T00:31:05;5.60;;;3.70;;
5465;SDS011;2755;50.728;7.108;2022-09-24T00:33:32;6.30;;;3.63;;
5465;SDS011;2755;50.728;7.108;2022-09-24T00:35:59;6.97;;;3.80;;
5465;SDS011;2755;50.728;7.108;2022-09-24T00:38:26;5.20;;;3.30;;
5465;SDS011;2755;50.728;7.108;2022-09-24T00:40:55;5.90;;;3.13;;
5465;SDS011;2755;50.728;7.108;2022-09-24T00:45:52;4.90;;;3.13;;
5465;SDS011;2755;50.728;7.108;2022-09-24T00:48:20;7.30;;;3.60;;
5465;SDS011;2755;50.728;7.108;2022-09-24T00:50:46;4.77;;;3.20;;
5465;SDS011;2755;50.728;7.108;2022-09-24T00:53:14;3.97;;;3.00;;
5465;SDS011;2755;50.728;7.108;2022-09-24T00:55:43;4.83;;;2.80;;
5465;SDS011;2755;50.728;7.108;2022-09-24T00:58:14;3.27;;;2.70;;
5465;SDS011;2755;50.728;7.108;2022-09-24T01:00:40;7.50;;;3.40;;
5465;SDS011;2755;50.728;7.108;2022-09-24T01:03:16;6.73;;;2.83;;
5465;SDS011;2755;50.728;7.108;2022-09-24T01:05:45;4.73;;;3.43;;
5465;SDS011;2755;50.728;7.108;2022-09-24T01:08:14;4.70;;;3.00;;
5465;SDS011;2755;50.728;7.108;2022-09-24T01:11:01;7.27;;;2.70;;
5465;SDS011;2755;50.728;7.108;2022-09-24T01:21:49;3.53;;;2.80;;
5465;SDS011;2755;50.728;7.108;2022-09-24T01:27:14;3.00;;;2.63;;
5465;SDS011;2755;50.728;7.108;2022-09-24T01:32:31;3.90;;;2.73;;
5465;SDS011;2755;50.728;7.108;2022-09-24T01:35:32;4.20;;;3.23;;
5465;SDS011;2755;50.728;7.108;2022-09-24T01:38:02;4.80;;;3.83;;
5465;SDS011;2755;50.728;7.108;2022-09-24T01:40:31;4.70;;;2.93;;
5465;SDS011;2755;50.728;7.108;2022-09-24T01:42:58;3.20;;;2.30;;
5465;SDS011;2755;50.728;7.108;2022-09-24T01:45:26;4.03;;;3.10;;
5465;SDS011;2755;50.728;7.108;2022-09-24T01:47:57;4.60;;;3.23;;
5465;SDS011;2755;50.728;7.108;2022-09-24T01:50:27;5.10;;;3.37;;
5465;SDS011;2755;50.728;7.108;2022-09-24T01:52:58;4.23;;;3.30;;
5465;SDS011;2755;50.728;7.108;2022-09-24T01:55:25;3.57;;;2.93;;
5465;SDS011;2755;50.728;7.108;2022-09-24T01:57:59;6.10;;;2.83;;
5465;SDS011;2755;50.728;7.108;2022-09-24T02:00:35;4.30;;;3.07;;
5465;SDS011;2755;50.728;7.108;2022-09-24T02:05:37;4.20;;;3.30;;
5465;SDS011;2755;50.728;7.108;2022-09-24T02:13:14;3.10;;;2.80;;
5465;SDS011;2755;50.728;7.108;2022-09-24T02:15:45;3.73;;;3.20;;
5465;SDS011;2755;50.728;7.108;2022-09-24T02:18:16;6.60;;;3.50;;
5465;SDS011;2755;50.728;7.108;2022-09-24T02:20:44;4.10;;;3.20;;
5465;SDS011;2755;50.728;7.108;2022-09-24T02:23:10;6.03;;;2.97;;
5465;SDS011;2755;50.728;7.108;2022-09-24T02:25:59;3.30;;;2.70;;
5465;SDS011;2755;50.728;7.108;2022-09-24T02:28:28;4.80;;;3.20;;
5465;SDS011;2755;50.728;7.108;2022-09-24T02:31:04;2.87;;;2.57;;
5465;SDS011;2755;50.728;7.108;2022-09-24T02:33:34;4.73;;;3.00;;
5465;SDS011;2755;50.728;7.108;2022-09-24T02:36:21;5.30;;;2.80;;
5465;SDS011;2755;50.728;7.108;2022-09-24T02:38:49;6.57;;;4.00;;
5465;SDS011;2755;50.728;7.108;2022-09-24T02:41:15;4.70;;;2.93;;
5465;SDS011;2755;50.728;7.108;2022-09-24T02:43:41;5.60;;;3.13;;
5465;SDS011;2755;50.728;7.108;2022-09-24T02:46:07;4.30;;;3.30;;
5465;SDS011;2755;50.728;7.108;2022-09-24T02:48:34;7.87;;;3.97;;
5465;SDS011;2755;50.728;7.108;2022-09-24T02:51:01;5.80;;;3.33;;
5465;SDS011;2755;50.728;7.108;2022-09-24T02:53:28;8.90;;;3.53;;
5465;SDS011;2755;50.728;7.108;2022-09-24T02:55:54;3.90;;;3.50;;
5465;SDS011;2755;50.728;7.108;2022-09-24T02:58:20;4.27;;;3.13;;
5465;SDS011;2755;50.728;7.108;2022-09-24T03:00:46;5.60;;;3.93;;
5465;SDS011;2755;50.728;7.108;2022-09-24T03:03:11;4.87;;;3.60;;
5465;SDS011;2755;50.728;7.108;2022-09-24T03:05:37;5.63;;;3.47;;
5465;SDS011;2755;50.728;7.108;2022-09-24T03:08:02;6.40;;;3.70;;
5465;SDS011;2755;50.728;7.108;2022-09-24T03:10:28;4.40;;;3.30;;
5465;SDS011;2755;50.728;7.108;2022-09-24T03:12:54;2.87;;;2.57;;
5465;SDS011;2755;50.728;7.108;2022-09-24T03:15:20;6.03;;;3.00;;
5465;SDS011;2755;50.728;7.108;2022-09-24T03:17:46;2.40;;;2.20;;
5465;SDS011;2755;50.728;7.108;2022-09-24T03:20:11;4.93;;;3.37;;
5465;SDS011;2755;50.728;7.108;2022-09-24T03:22:37;5.73;;;3.67;;
5465;SDS011;2755;50.728;7.108;2022-09-24T03:25:03;4.47;;;2.70;;
5465;SDS011;2755;50.728;7.108;2022-09-24T03:27:28;2.80;;;2.53;;
5465;SDS011;2755;50.728;7.108;2022-09-24T03:29:54;3.03;;;2.53;;
5465;SDS011;2755;50.728;7.108;2022-09-24T03:32:54;3.50;;;2.90;;
5465;SDS011;2755;50.728;7.108;2022-09-24T03:35:20;3.60;;;2.80;;
5465;SDS011;2755;50.728;7.108;2022-09-24T03:37:46;3.43;;;2.60;;
5465;SDS011;2755;50.728;7.108;2022-09-24T03:40:11;3.10;;;2.70;;
5465;SDS011;2755;50.728;7.108;2022-09-24T03:42:40;6.00;;;3.67;;
5465;SDS011;2755;50.728;7.108;2022-09-24T03:45:06;4.60;;;3.17;;
5465;SDS011;2755;50.728;7.108;2022-09-24T03:47:32;3.67;;;3.07;;
5465;SDS011;2755;50.728;7.108;2022-09-24T03:49:57;4.70;;;3.40;;
5465;SDS011;2755;50.728;7.108;2022-09-24T03:52:23;4.20;;;3.50;;
5465;SDS011;2755;50.728;7.108;2022-09-24T03:54:50;5.00;;;3.37;;
5465;SDS011;2755;50.728;7.108;2022-09-24T03:57:15;8.57;;;4.33;;
5465;SDS011;2755;50.728;7.108;2022-09-24T03:59:41;6.93;;;4.30;;
5465;SDS011;2755;50.728;7.108;2022-09-24T04:02:08;5.67;;;4.20;;
5465;SDS011;2755;50.728;7.108;2022-09-24T04:04:34;5.07;;;3.70;;
5465;SDS011;2755;50.728;7.108;2022-09-24T04:07:00;6.63;;;4.30;;
5465;SDS011;2755;50.728;7.108;2022-09-24T04:09:26;10.13;;;3.90;;
5465;SDS011;2755;50.728;7.108;2022-09-24T04:11:52;4.67;;;3.67;;
5465;SDS011;2755;50.728;7.108;2022-09-24T04:14:19;4.57;;;3.70;;
5465;SDS011;2755;50.728;7.108;2022-09-24T04:16:45;4.10;;;2.83;;
5465;SDS011;2755;50.728;7.108;2022-09-24T04:19:11;3.50;;;3.20;;
5465;SDS011;2755;50.728;7.108;2022-09-24T04:21:37;3.70;;;3.17;;
5465;SDS011;2755;50.728;7.108;2022-09-24T04:24:03;5.40;;;3.50;;
5465;SDS011;2755;50.728;7.108;2022-09-24T04:26:29;3.60;;;3.30;;
5465;SDS011;2755;50.728;7.108;2022-09-24T04:28:54;5.17;;;4.10;;
5465;SDS011;2755;50.728;7.108;2022-09-24T04:31:23;7.77;;;3.87;;
5465;SDS011;2755;50.728;7.108;2022-09-24T04:33:49;3.37;;;3.00;;
5465;SDS011;2755;50.728;7.108;2022-09-24T04:36:15;8.77;;;3.60;;
5465;SDS011;2755;50.728;7.108;2022-09-24T04:38:41;5.03;;;3.40;;
5465;SDS011;2755;50.728;7.108;2022-09-24T04:41:08;3.43;;;3.10;;
5465;SDS011;2755;50.728;7.108;2022-09-24T04:43:33;4.07;;;3.00;;
5465;SDS011;2755;50.728;7.108;2022-09-24T04:46:00;7.90;;;3.67;;
5465;SDS011;2755;50.728;7.108;2022-09-24T04:48:27;3.50;;;2.87;;
5465;SDS011;2755;50.728;7.108;2022-09-24T04:50:53;6.30;;;3.53;;
5465;SDS011;2755;50.728;7.108;2022-09-24T04:53:19;6.77;;;3.87;;
5465;SDS011;2755;50.728;7.108;2022-09-24T04:55:47;5.63;;;3.97;;
5465;SDS011;2755;50.728;7.108;2022-09-24T04:58:12;4.57;;;3.80;;
5465;SDS011;2755;50.728;7.108;2022-09-24T05:00:38;10.90;;;4.33;;
5465;SDS011;2755;50.728;7.108;2022-09-24T05:03:05;4.90;;;3.73;;
5465;SDS011;2755;50.728;7.108;2022-09-24T05:05:31;5.77;;;4.50;;
5465;SDS011;2755;50.728;7.108;2022-09-24T05:07:58;5.33;;;3.40;;
5465;SDS011;2755;50.728;7.108;2022-09-24T05:10:24;4.37;;;3.50;;
5465;SDS011;2755;50.728;7.108;2022-09-24T05:12:51;4.43;;;3.90;;
5465;SDS011;2755;50.728;7.108;2022-09-24T05:15:16;4.53;;;4.10;;
5465;SDS011;2755;50.728;7.108;2022-09-24T05:17:45;6.17;;;4.63;;
5465;SDS011;2755;50.728;7.108;2022-09-24T05:20:11;5.27;;;3.57;;
5465;SDS011;2755;50.728;7.108;2022-09-24T05:22:44;7.10;;;5.03;;
5465;SDS011;2755;50.728;7.108;2022-09-24T05:25:11;8.53;;;4.03;;
5465;SDS011;2755;50.728;7.108;2022-09-24T05:28:11;5.53;;;3.73;;
5465;SDS011;2755;50.728;7.108;2022-09-24T05:30:30;8.00;;;4.63;;
5465;SDS011;2755;50.728;7.108;2022-09-24T05:32:55;6.10;;;3.47;;
5465;SDS011;2755;50.728;7.108;2022-09-24T05:35:21;15.57;;;3.30;;
5465;SDS011;2755;50.728;7.108;2022-09-24T05:37:48;4.23;;;3.23;;
5465;SDS011;2755;50.728;7.108;2022-09-24T05:40:13;5.47;;;3.27;;
5465;SDS011;2755;50.728;7.108;2022-09-24T05:42:58;4.27;;;3.50;;
5465;SDS011;2755;50.728;7.108;2022-09-24T05:45:25;6.50;;;4.20;;
5465;SDS011;2755;50.728;7.108;2022-09-24T05:47:51;4.03;;;3.23;;
5465;SDS011;2755;50.728;7.108;2022-09-24T05:50:16;4.13;;;3.30;;
5465;SDS011;2755;50.728;7.108;2022-09-24T05:52:42;4.20;;;3.00;;
5465;SDS011;2755;50.728;7.108;2022-09-24T05:55:08;3.80;;;2.90;;
5465;SDS011;2755;50.728;7.108;2022-09-24T05:57:34;5.23;;;2.97;;
5465;SDS011;2755;50.728;7.108;2022-09-24T06:00:00;3.93;;;2.90;;
5465;SDS011;2755;50.728;7.108;2022-09-24T06:02:26;4.00;;;2.80;;
5465;SDS011;2755;50.728;7.108;2022-09-24T06:04:51;5.17;;;3.07;;
5465;SDS011;2755;50.728;7.108;2022-09-24T06:07:17;4.73;;;2.93;;
5465;SDS011;2755;50.728;7.108;2022-09-24T06:09:44;4.80;;;3.27;;
5465;SDS011;2755;50.728;7.108;2022-09-24T06:12:11;4.20;;;3.00;;
5465;SDS011;2755;50.728;7.108;2022-09-24T06:14:38;9.90;;;2.87;;
5465;SDS011;2755;50.728;7.108;2022-09-24T06:17:05;4.93;;;3.60;;
5465;SDS011;2755;50.728;7.108;2022-09-24T06:19:30;3.03;;;2.73;;
5465;SDS011;2755;50.728;7.108;2022-09-24T06:21:56;4.33;;;2.70;;
5465;SDS011;2755;50.728;7.108;2022-09-24T06:24:22;3.97;;;2.80;;
5465;SDS011;2755;50.728;7.108;2022-09-24T06:26:48;5.00;;;3.13;;
5465;SDS011;2755;50.728;7.108;2022-09-24T06:29:13;3.30;;;2.70;;
5465;SDS011;2755;50.728;7.108;2022-09-24T06:31:40;3.57;;;3.00;;
5465;SDS011;2755;50.728;7.108;2022-09-24T06:34:06;4.60;;;3.83;;
5465;SDS011;2755;50.728;7.108;2022-09-24T06:36:31;5.43;;;3.90;;
5465;SDS011;2755;50.728;7.108;2022-09-24T06:38:57;7.90;;;3.90;;
5465;SDS011;2755;50.728;7.108;2022-09-24T06:41:23;5.93;;;4.00;;
5465;SDS011;2755;50.728;7.108;2022-09-24T06:43:51;5.73;;;4.30;;
5465;SDS011;2755;50.728;7.108;2022-09-24T06:46:18;4.53;;;3.17;;
5465;SDS011;2755;50.728;7.108;2022-09-24T06:48:44;5.13;;;3.63;;
5465;SDS011;2755;50.728;7.108;2022-09-24T06:51:10;4.40;;;2.83;;
5465;SDS011;2755;50.728;7.108;2022-09-24T06:53:35;6.87;;;3.40;;
5465;SDS011;2755;50.728;7.108;2022-09-24T06:56:01;10.43;;;4.20;;
5465;SDS011;2755;50.728;7.108;2022-09-24T06:58:27;7.77;;;3.60;;
5465;SDS011;2755;50.728;7.108;2022-09-24T07:00:56;7.43;;;3.87;;
5465;SDS011;2755;50.728;7.108;2022-09-24T07:03:25;4.90;;;2.90;;
5465;SDS011;2755;50.728;7.108;2022-09-24T07:05:51;6.50;;;4.13;;
5465;SDS011;2755;50.728;7.108;2022-09-24T07:08:17;5.23;;;3.90;;
5465;SDS011;2755;50.728;7.108;2022-09-24T07:10:43;3.50;;;3.20;;
5465;SDS011;2755;50.728;7.108;2022-09-24T07:13:12;4.30;;;3.27;;
5465;SDS011;2755;50.728;7.108;2022-09-24T07:15:38;11.53;;;3.67;;
5465;SDS011;2755;50.728;7.108;2022-09-24T07:18:04;6.00;;;3.80;;
5465;SDS011;2755;50.728;7.108;2022-09-24T07:20:30;5.30;;;3.57;;
5465;SDS011;2755;50.728;7.108;2022-09-24T07:23:00;5.10;;;3.13;;
5465;SDS011;2755;50.728;7.108;2022-09-24T07:25:30;4.80;;;3.43;;
5465;SDS011;2755;50.728;7.108;2022-09-24T07:28:00;4.63;;;3.20;;
5465;SDS011;2755;50.728;7.108;2022-09-24T07:30:33;4.40;;;3.50;;
5465;SDS011;2755;50.728;7.108;2022-09-24T07:32:59;6.10;;;2.97;;
5465;SDS011;2755;50.728;7.108;2022-09-24T07:35:26;5.57;;;3.47;;
5465;SDS011;2755;50.728;7.108;2022-09-24T07:37:56;5.10;;;3.60;;
5465;SDS011;2755;50.728;7.108;2022-09-24T07:40:26;6.40;;;3.43;;
5465;SDS011;2755;50.728;7.108;2022-09-24T07:42:52;7.70;;;3.30;;
5465;SDS011;2755;50.728;7.108;2022-09-24T07:45:19;4.53;;;3.07;;
5465;SDS011;2755;50.728;7.108;2022-09-24T07:48:22;5.27;;;3.30;;
5465;SDS011;2755;50.728;7.108;2022-09-24T07:50:41;4.07;;;2.80;;
5465;SDS011;2755;50.728;7.108;2022-09-24T07:53:08;6.80;;;2.93;;
5465;SDS011;2755;50.728;7.108;2022-09-24T07:55:35;5.00;;;2.70;;
5465;SDS011;2755;50.728;7.108;2022-09-24T07:58:04;4.90;;;3.60;;
5465;SDS011;2755;50.728;7.108;2022-09-24T08:00:32;5.17;;;3.40;;
5465;SDS011;2755;50.728;7.108;2022-09-24T08:02:58;4.60;;;3.00;;
5465;SDS011;2755;50.728;7.108;2022-09-24T08:05:26;3.77;;;2.60;;
5465;SDS011;2755;50.728;7.108;2022-09-24T08:07:52;7.60;;;3.97;;
5465;SDS011;2755;50.728;7.108;2022-09-24T08:10:19;7.00;;;3.30;;
5465;SDS011;2755;50.728;7.108;2022-09-24T08:12:45;9.43;;;3.60;;
5465;SDS011;2755;50.728;7.108;2022-09-24T08:15:11;13.70;;;3.60;;
5465;SDS011;2755;50.728;7.108;2022-09-24T08:17:36;4.47;;;3.20;;
5465;SDS011;2755;50.728;7.108;2022-09-24T08:20:02;4.53;;;3.00;;
5465;SDS011;2755;50.728;7.108;2022-09-24T08:22:28;4.90;;;3.40;;
5465;SDS011;2755;50.728;7.108;2022-09-24T08:24:56;13.13;;;3.70;;
5465;SDS011;2755;50.728;7.108;2022-09-24T08:27:21;3.87;;;3.00;;
5465;SDS011;2755;50.728;7.108;2022-09-24T08:29:49;5.60;;;3.23;;
5465;SDS011;2755;50.728;7.108;2022-09-24T08:32:15;3.93;;;3.07;;
5465;SDS011;2755;50.728;7.108;2022-09-24T08:34:41;6.03;;;3.63;;
5465;SDS011;2755;50.728;7.108;2022-09-24T08:37:07;4.53;;;3.37;;
5465;SDS011;2755;50.728;7.108;2022-09-24T08:39:33;5.50;;;2.93;;
5465;SDS011;2755;50.728;7.108;2022-09-24T08:42:00;4.57;;;2.40;;
5465;SDS011;2755;50.728;7.108;2022-09-24T08:47:29;3.83;;;2.67;;
5465;SDS011;2755;50.728;7.108;2022-09-24T08:50:23;5.03;;;3.07;;
5465;SDS011;2755;50.728;7.108;2022-09-24T08:55:59;8.43;;;3.60;;
5465;SDS011;2755;50.728;7.108;2022-09-24T09:03:43;4.50;;;2.93;;
5465;SDS011;2755;50.728;7.108;2022-09-24T09:09:09;7.30;;;4.00;;
5465;SDS011;2755;50.728;7.108;2022-09-24T09:11:44;12.53;;;4.60;;
5465;SDS011;2755;50.728;7.108;2022-09-24T09:16:54;11.73;;;4.40;;
5465;SDS011;2755;50.728;7.108;2022-09-24T09:19:51;8.10;;;5.47;;
5465;SDS011;2755;50.728;7.108;2022-09-24T09:22:20;7.40;;;5.37;;
5465;SDS011;2755;50.728;7.108;2022-09-24T09:24:48;6.80;;;4.23;;
5465;SDS011;2755;50.728;7.108;2022-09-24T09:27:15;6.13;;;4.53;;
5465;SDS011;2755;50.728;7.108;2022-09-24T09:29:43;9.63;;;5.50;;
5465;SDS011;2755;50.728;7.108;2022-09-24T09:43:29;9.87;;;5.80;;
5465;SDS011;2755;50.728;7.108;2022-09-24T09:48:36;9.27;;;5.07;;
5465;SDS011;2755;50.728;7.108;2022-09-24T09:51:21;9.07;;;6.00;;
5465;SDS011;2755;50.728;7.108;2022-09-24T09:54:02;14.50;;;6.57;;
5465;SDS011;2755;50.728;7.108;2022-09-24T09:57:02;17.37;;;7.20;;
5465;SDS011;2755;50.728;7.108;2022-09-24T09:59:20;12.87;;;6.60;;
5465;SDS011;2755;50.728;7.108;2022-09-24T10:01:50;12.27;;;6.53;;
5465;SDS011;2755;50.728;7.108;2022-09-24T10:04:25;7.87;;;5.00;;
5465;SDS011;2755;50.728;7.108;2022-09-24T10:07:10;6.17;;;4.27;;
5465;SDS011;2755;50.728;7.108;2022-09-24T10:09:38;11.17;;;6.40;;
5465;SDS011;2755;50.728;7.108;2022-09-24T10:12:05;12.60;;;6.10;;
5465;SDS011;2755;50.728;7.108;2022-09-24T10:14:31;7.80;;;5.10;;
5465;SDS011;2755;50.728;7.108;2022-09-24T10:16:57;8.03;;;5.47;;
5465;SDS011;2755;50.728;7.108;2022-09-24T10:19:29;9.57;;;5.80;;
5465;SDS011;2755;50.728;7.108;2022-09-24T10:22:05;9.40;;;6.07;;
5465;SDS011;2755;50.728;7.108;2022-09-24T10:24:33;11.03;;;6.10;;
5465;SDS011;2755;50.728;7.108;2022-09-24T10:27:08;10.40;;;5.80;;
5465;SDS011;2755;50.728;7.108;2022-09-24T10:29:38;9.27;;;4.93;;
5465;SDS011;2755;50.728;7.108;2022-09-24T10:32:24;12.07;;;7.37;;
5465;SDS011;2755;50.728;7.108;2022-09-24T10:34:54;10.03;;;5.93;;
5465;SDS011;2755;50.728;7.108;2022-09-24T10:37:27;8.77;;;5.23;;
5465;SDS011;2755;50.728;7.108;2022-09-24T10:39:57;8.47;;;5.47;;
5465;SDS011;2755;50.728;7.108;2022-09-24T10:42:25;13.93;;;7.07;;
5465;SDS011;2755;50.728;7.108;2022-09-24T10:44:52;8.80;;;5.30;;
5465;SDS011;2755;50.728;7.108;2022-09-24T10:58:27;9.47;;;6.00;;
5465;SDS011;2755;50.728;7.108;2022-09-24T11:07:12;12.03;;;6.80;;
5465;SDS011;2755;50.728;7.108;2022-09-24T11:09:54;12.47;;;7.00;;
5465;SDS011;2755;50.728;7.108;2022-09-24T11:12:38;12.10;;;7.07;;
5465;SDS011;2755;50.728;7.108;2022-09-24T11:20:48;8.90;;;5.83;;
5465;SDS011;2755;50.728;7.108;2022-09-24T11:23:31;10.33;;;6.80;;
5465;SDS011;2755;50.728;7.108;2022-09-24T11:26:06;13.60;;;7.80;;
5465;SDS011;2755;50.728;7.108;2022-09-24T11:28:51;8.83;;;6.70;;
5465;SDS011;2755;50.728;7.108;2022-09-24T11:31:38;8.40;;;6.20;;
5465;SDS011;2755;50.728;7.108;2022-09-24T11:40:16;10.07;;;6.60;;
5465;SDS011;2755;50.728;7.108;2022-09-24T11:54:02;11.40;;;7.37;;
5465;SDS011;2755;50.728;7.108;2022-09-24T11:56:39;13.80;;;7.43;;
5465;SDS011;2755;50.728;7.108;2022-09-24T12:01:36;17.13;;;9.70;;
5465;SDS011;2755;50.728;7.108;2022-09-24T12:04:10;10.63;;;6.53;;
5465;SDS011;2755;50.728;7.108;2022-09-24T12:07:07;7.23;;;6.00;;
5465;SDS011;2755;50.728;7.108;2022-09-24T12:09:39;20.90;;;10.53;;
5465;SDS011;2755;50.728;7.108;2022-09-24T12:14:54;15.17;;;9.40;;
5465;SDS011;2755;50.728;7.108;2022-09-24T12:17:37;16.90;;;11.20;;
5465;SDS011;2755;50.728;7.108;2022-09-24T12:20:13;17.27;;;12.23;;
5465;SDS011;2755;50.728;7.108;2022-09-24T12:22:58;19.40;;;8.80;;
5465;SDS011;2755;50.728;7.108;2022-09-24T12:25:28;26.70;;;12.00;;
5465;SDS011;2755;50.728;7.108;2022-09-24T12:28:03;13.17;;;8.17;;
5465;SDS011;2755;50.728;7.108;2022-09-24T12:33:33;19.17;;;10.03;;
5465;SDS011;2755;50.728;7.108;2022-09-24T12:39:09;18.00;;;9.27;;
5465;SDS011;2755;50.728;7.108;2022-09-24T12:41:41;12.83;;;7.30;;
5465;SDS011;2755;50.728;7.108;2022-09-24T12:46:40;11.73;;;7.33;;
5465;SDS011;2755;50.728;7.108;2022-09-24T12:49:27;15.90;;;6.97;;
5465;SDS011;2755;50.728;7.108;2022-09-24T12:51:59;14.10;;;7.77;;
5465;SDS011;2755;50.728;7.108;2022-09-24T12:54:30;15.00;;;7.10;;
5465;SDS011;2755;50.728;7.108;2022-09-24T13:00:00;13.03;;;7.10;;
5465;SDS011;2755;50.728;7.108;2022-09-24T13:02:46;13.57;;;7.67;;
5465;SDS011;2755;50.728;7.108;2022-09-24T13:07:57;11.90;;;8.27;;
5465;SDS011;2755;50.728;7.108;2022-09-24T13:10:30;12.23;;;6.77;;
5465;SDS011;2755;50.728;7.108;2022-09-24T13:12:58;12.80;;;8.10;;
5465;SDS011;2755;50.728;7.108;2022-09-24T13:18:00;14.90;;;8.57;;
5465;SDS011;2755;50.728;7.108;2022-09-24T13:20:30;15.60;;;8.07;;
5465;SDS011;2755;50.728;7.108;2022-09-24T13:22:58;15.57;;;7.30;;
5465;SDS011;2755;50.728;7.108;2022-09-24T13:25:36;12.07;;;7.90;;
5465;SDS011;2755;50.728;7.108;2022-09-24T13:28:03;17.93;;;8.90;;
5465;SDS011;2755;50.728;7.108;2022-09-24T13:36:39;15.50;;;7.33;;
5465;SDS011;2755;50.728;7.108;2022-09-24T13:44:53;16.00;;;10.23;;
5465;SDS011;2755;50.728;7.108;2022-09-24T13:49:47;12.90;;;8.50;;
5465;SDS011;2755;50.728;7.108;2022-09-24T13:54:55;17.70;;;10.87;;
5465;SDS011;2755;50.728;7.108;2022-09-24T13:57:26;16.27;;;9.87;;
5465;SDS011;2755;50.728;7.108;2022-09-24T14:02:41;13.10;;;8.00;;
5465;SDS011;2755;50.728;7.108;2022-09-24T14:05:15;11.70;;;7.90;;
5465;SDS011;2755;50.728;7.108;2022-09-24T14:07:45;14.67;;;7.97;;
5465;SDS011;2755;50.728;7.108;2022-09-24T14:10:25;16.50;;;9.40;;
5465;SDS011;2755;50.728;7.108;2022-09-24T14:13:00;14.07;;;7.60;;
5465;SDS011;2755;50.728;7.108;2022-09-24T14:15:26;23.70;;;12.50;;
5465;SDS011;2755;50.728;7.108;2022-09-24T14:17:55;18.20;;;9.57;;
5465;SDS011;2755;50.728;7.108;2022-09-24T14:20:25;14.37;;;9.27;;
5465;SDS011;2755;50.728;7.108;2022-09-24T14:22:58;14.40;;;9.20;;
5465;SDS011;2755;50.728;7.108;2022-09-24T14:25:27;13.00;;;8.17;;
5465;SDS011;2755;50.728;7.108;2022-09-24T14:27:57;14.73;;;8.93;;
5465;SDS011;2755;50.728;7.108;2022-09-24T14:30:26;13.10;;;9.67;;
5465;SDS011;2755;50.728;7.108;2022-09-24T14:32:58;14.90;;;10.67;;
5465;SDS011;2755;50.728;7.108;2022-09-24T14:35:37;14.17;;;9.33;;
5465;SDS011;2755;50.728;7.108;2022-09-24T14:38:17;14.53;;;9.33;;
5465;SDS011;2755;50.728;7.108;2022-09-24T14:40:48;13.20;;;8.80;;
5465;SDS011;2755;50.728;7.108;2022-09-24T14:43:24;13.07;;;8.70;;
5465;SDS011;2755;50.728;7.108;2022-09-24T14:46:05;20.53;;;9.70;;
5465;SDS011;2755;50.728;7.108;2022-09-24T14:48:47;18.17;;;9.63;;
5465;SDS011;2755;50.728;7.108;2022-09-24T14:51:29;18.20;;;9.83;;
5465;SDS011;2755;50.728;7.108;2022-09-24T14:53:56;22.03;;;12.20;;
5465;SDS011;2755;50.728;7.108;2022-09-24T14:58:52;27.33;;;15.93;;
5465;SDS011;2755;50.728;7.108;2022-09-24T15:01:18;19.47;;;11.80;;
5465;SDS011;2755;50.728;7.108;2022-09-24T15:03:48;22.30;;;13.37;;
5465;SDS011;2755;50.728;7.108;2022-09-24T15:06:43;20.70;;;13.37;;
5465;SDS011;2755;50.728;7.108;2022-09-24T15:12:07;15.30;;;11.43;;
5465;SDS011;2755;50.728;7.108;2022-09-24T15:14:34;16.70;;;10.67;;
5465;SDS011;2755;50.728;7.108;2022-09-24T15:17:19;18.57;;;11.97;;
5465;SDS011;2755;50.728;7.108;2022-09-24T15:19:46;14.77;;;10.50;;
5465;SDS011;2755;50.728;7.108;2022-09-24T15:22:12;18.57;;;12.47;;
5465;SDS011;2755;50.728;7.108;2022-09-24T15:24:38;19.73;;;11.90;;
5465;SDS011;2755;50.728;7.108;2022-09-24T15:27:04;20.33;;;13.47;;
5465;SDS011;2755;50.728;7.108;2022-09-24T15:29:39;18.67;;;11.53;;
5465;SDS011;2755;50.728;7.108;2022-09-24T15:32:08;18.90;;;11.73;;
5465;SDS011;2755;50.728;7.108;2022-09-24T15:34:39;19.13;;;12.00;;
5465;SDS011;2755;50.728;7.108;2022-09-24T15:37:07;20.60;;;12.63;;
5465;SDS011;2755;50.728;7.108;2022-09-24T15:39:35;23.43;;;12.80;;
5465;SDS011;2755;50.728;7.108;2022-09-24T15:42:02;21.43;;;12.20;;
5465;SDS011;2755;50.728;7.108;2022-09-24T15:44:28;15.53;;;11.20;;
5465;SDS011;2755;50.728;7.108;2022-09-24T15:46:53;15.97;;;11.80;;
5465;SDS011;2755;50.728;7.108;2022-09-24T15:49:20;19.93;;;12.03;;
5465;SDS011;2755;50.728;7.108;2022-09-24T15:51:50;28.03;;;13.67;;
5465;SDS011;2755;50.728;7.108;2022-09-24T15:54:18;18.57;;;12.37;;
5465;SDS011;2755;50.728;7.108;2022-09-24T15:56:45;18.90;;;12.50;;
5465;SDS011;2755;50.728;7.108;2022-09-24T15:59:16;20.67;;;11.70;;
5465;SDS011;2755;50.728;7.108;2022-09-24T16:01:43;14.23;;;10.30;;
5465;SDS011;2755;50.728;7.108;2022-09-24T16:04:10;18.90;;;10.00;;
5465;SDS011;2755;50.728;7.108;2022-09-24T16:06:36;14.40;;;10.63;;
5465;SDS011;2755;50.728;7.108;2022-09-24T16:09:02;18.47;;;11.50;;
5465;SDS011;2755;50.728;7.108;2022-09-24T16:11:29;18.63;;;11.87;;
5465;SDS011;2755;50.728;7.108;2022-09-24T16:13:55;17.50;;;10.37;;
5465;SDS011;2755;50.728;7.108;2022-09-24T16:16:20;17.77;;;11.80;;
5465;SDS011;2755;50.728;7.108;2022-09-24T16:18:46;16.10;;;10.90;;
5465;SDS011;2755;50.728;7.108;2022-09-24T16:21:12;18.87;;;12.10;;
5465;SDS011;2755;50.728;7.108;2022-09-24T16:23:37;17.23;;;11.50;;
5465;SDS011;2755;50.728;7.108;2022-09-24T16:26:03;19.67;;;13.63;;
5465;SDS011;2755;50.728;7.108;2022-09-24T16:28:29;18.70;;;12.80;;
5465;SDS011;2755;50.728;7.108;2022-09-24T16:30:55;21.00;;;13.00;;
5465;SDS011;2755;50.728;7.108;2022-09-24T16:33:20;22.10;;;13.83;;
5465;SDS011;2755;50.728;7.108;2022-09-24T16:35:46;20.27;;;12.70;;
5465;SDS011;2755;50.728;7.108;2022-09-24T16:38:12;20.57;;;13.73;;
5465;SDS011;2755;50.728;7.108;2022-09-24T16:40:38;20.70;;;13.37;;
5465;SDS011;2755;50.728;7.108;2022-09-24T16:43:04;22.60;;;14.30;;
5465;SDS011;2755;50.728;7.108;2022-09-24T16:45:30;24.40;;;14.30;;
5465;SDS011;2755;50.728;7.108;2022-09-24T16:47:56;19.20;;;12.40;;
5465;SDS011;2755;50.728;7.108;2022-09-24T16:50:23;20.40;;;12.73;;
5465;SDS011;2755;50.728;7.108;2022-09-24T16:52:48;22.87;;;12.00;;
5465;SDS011;2755;50.728;7.108;2022-09-24T16:55:16;26.47;;;15.10;;
5465;SDS011;2755;50.728;7.108;2022-09-24T16:57:42;23.17;;;13.50;;
5465;SDS011;2755;50.728;7.108;2022-09-24T17:00:08;20.80;;;13.70;;
5465;SDS011;2755;50.728;7.108;2022-09-24T17:02:35;21.40;;;13.33;;
5465;SDS011;2755;50.728;7.108;2022-09-24T17:05:01;20.03;;;12.47;;
5465;SDS011;2755;50.728;7.108;2022-09-24T17:07:30;22.37;;;13.20;;
5465;SDS011;2755;50.728;7.108;2022-09-24T17:09:56;18.83;;;11.53;;
5465;SDS011;2755;50.728;7.108;2022-09-24T17:12:46;27.23;;;14.70;;
5465;SDS011;2755;50.728;7.108;2022-09-24T17:15:13;19.53;;;11.90;;
5465;SDS011;2755;50.728;7.108;2022-09-24T17:17:41;19.73;;;11.50;;
5465;SDS011;2755;50.728;7.108;2022-09-24T17:20:07;20.27;;;12.30;;
5465;SDS011;2755;50.728;7.108;2022-09-24T17:22:34;20.27;;;11.17;;
5465;SDS011;2755;50.728;7.108;2022-09-24T17:25:00;17.20;;;11.30;;
5465;SDS011;2755;50.728;7.108;2022-09-24T17:27:27;23.30;;;12.80;;
5465;SDS011;2755;50.728;7.108;2022-09-24T17:29:52;15.67;;;10.50;;
5465;SDS011;2755;50.728;7.108;2022-09-24T17:32:18;15.53;;;11.10;;
5465;SDS011;2755;50.728;7.108;2022-09-24T17:34:44;15.40;;;9.27;;
5465;SDS011;2755;50.728;7.108;2022-09-24T17:37:09;17.97;;;11.57;;
5465;SDS011;2755;50.728;7.108;2022-09-24T17:39:35;16.10;;;11.70;;
5465;SDS011;2755;50.728;7.108;2022-09-24T17:42:00;15.50;;;10.40;;
5465;SDS011;2755;50.728;7.108;2022-09-24T17:44:26;14.10;;;9.80;;